Time;durP1;ratioP1;P1;durP2;ratioP2;P2;SDS_P1;SDS_P2;PMS_P1;PMS_P2;Temp;Humidity;BMP_temperature;BMP_pressure;BME280_temperature;BME280_humidity;BME280_pressure;Samples;Min_cycle;Max_cycle;Signal;HPM_P1;HPM_P2
2023/08/11 00:02:05;;;;;;;6.17;5.57;;;22.50;44.90;;;;;;5074155;28;20513;-53
2023/08/11 00:04:31;;;;;;;7.53;6.10;;;22.40;45.40;;;;;;5074410;28;20476;-54
2023/08/11 00:06:57;;;;;;;8.53;6.33;;;22.40;45.70;;;;;;5074148;28;20910;-53
2023/08/11 00:09:24;;;;;;;8.70;7.00;;;22.40;45.90;;;;;;5073778;28;20415;-51
2023/08/11 00:11:50;;;;;;;6.87;6.17;;;22.40;45.80;;;;;;5072622;28;20442;-54
2023/08/11 00:14:16;;;;;;;6.40;5.80;;;22.40;45.70;;;;;;5073921;28;20767;-53
2023/08/11 00:16:42;;;;;;;7.00;6.30;;;22.40;45.60;;;;;;5073851;28;20541;-52
2023/08/11 00:19:08;;;;;;;6.77;6.13;;;22.40;45.40;;;;;;5073691;28;20411;-51
2023/08/11 00:21:34;;;;;;;7.43;5.70;;;22.30;45.40;;;;;;5073685;28;20437;-54
2023/08/11 00:24:00;;;;;;;5.77;5.20;;;22.20;45.40;;;;;;5073737;28;20202;-56
2023/08/11 00:26:25;;;;;;;5.80;5.17;;;22.20;46.20;;;;;;5073974;28;20192;-51
2023/08/11 00:28:51;;;;;;;9.53;5.70;;;22.20;45.50;;;;;;5073659;28;20181;-55
2023/08/11 00:31:17;;;;;;;8.40;6.00;;;22.10;45.50;;;;;;5073314;28;20196;-51
2023/08/11 00:33:46;;;;;;;6.97;6.10;;;22.00;45.50;;;;;;5073950;28;20165;-51
2023/08/11 00:36:13;;;;;;;8.17;5.80;;;22.00;45.70;;;;;;5073508;28;20446;-54
2023/08/11 00:38:40;;;;;;;6.47;5.87;;;21.90;45.70;;;;;;5073416;28;20402;-54
2023/08/11 00:41:06;;;;;;;6.30;5.80;;;21.90;45.90;;;;;;5073090;28;20821;-52
2023/08/11 00:43:32;;;;;;;8.90;5.70;;;21.90;45.90;;;;;;5073317;28;20513;-54
2023/08/11 00:46:07;;;;;;;8.73;6.10;;;21.90;45.70;;;;;;5073238;28;20442;-56
2023/08/11 00:48:34;;;;;;;6.73;6.13;;;21.80;45.60;;;;;;5073308;28;20861;-51
2023/08/11 00:51:01;;;;;;;6.60;6.00;;;21.70;46.30;;;;;;5073219;28;20520;-52
2023/08/11 00:53:27;;;;;;;7.03;6.13;;;21.70;45.70;;;;;;5072976;28;20502;-54
2023/08/11 00:55:53;;;;;;;6.07;5.47;;;21.60;45.70;;;;;;5073396;28;21017;-53
2023/08/11 00:58:19;;;;;;;7.20;6.50;;;21.50;45.90;;;;;;5073162;28;20399;-53
2023/08/11 01:00:46;;;;;;;7.07;6.37;;;21.50;45.90;;;;;;5072773;28;20431;-52
2023/08/11 01:03:12;;;;;;;7.00;6.40;;;21.50;45.90;;;;;;5072882;28;20493;-53
2023/08/11 01:05:46;;;;;;;8.73;6.33;;;21.50;45.90;;;;;;5072865;28;20494;-54
2023/08/11 01:08:29;;;;;;;7.70;7.00;;;21.40;45.80;;;;;;5072887;28;20783;-52
2023/08/11 01:11:05;;;;;;;7.77;6.73;;;21.40;45.80;;;;;;5072624;28;20422;-52
2023/08/11 01:13:35;;;;;;;10.77;7.50;;;21.30;45.90;;;;;;5072757;28;20417;-54
2023/08/11 01:16:04;;;;;;;8.77;6.40;;;21.20;46.00;;;;;;5072634;28;20454;-52
2023/08/11 01:18:30;;;;;;;8.40;7.50;;;21.20;46.10;;;;;;5072617;28;20406;-50
2023/08/11 01:21:08;;;;;;;7.83;7.23;;;21.20;46.30;;;;;;5072441;28;20475;-53
2023/08/11 01:23:34;;;;;;;7.43;6.33;;;21.20;46.30;;;;;;5072701;28;20394;-52
2023/08/11 01:26:01;;;;;;;8.00;6.03;;;21.10;46.30;;;;;;5072567;28;20411;-52
2023/08/11 01:28:27;;;;;;;7.10;6.47;;;21.10;46.10;;;;;;5072446;28;20442;-56
2023/08/11 01:30:53;;;;;;;8.00;7.30;;;21.10;46.30;;;;;;5070817;28;21001;-54
2023/08/11 01:33:19;;;;;;;14.60;7.30;;;21.00;46.10;;;;;;5072413;28;20173;-50
2023/08/11 01:35:45;;;;;;;10.40;7.43;;;21.00;46.20;;;;;;5072489;28;20279;-51
2023/08/11 01:38:10;;;;;;;8.23;7.53;;;20.90;46.20;;;;;;5072440;28;20168;-52
2023/08/11 01:40:37;;;;;;;7.50;6.80;;;20.90;46.30;;;;;;5072020;28;20199;-52
2023/08/11 01:43:05;;;;;;;11.43;8.43;;;20.90;46.40;;;;;;5072372;28;20403;-51
2023/08/11 01:45:31;;;;;;;7.68;6.88;;;20.90;46.40;;;;;;5054568;28;20657;-53
2023/08/11 01:47:59;;;;;;;7.77;6.93;;;20.90;46.40;;;;;;5072518;28;20180;-55
2023/08/11 01:50:27;;;;;;;8.80;8.00;;;20.90;46.30;;;;;;5071925;28;20538;-52
2023/08/11 01:52:54;;;;;;;7.93;7.23;;;20.90;46.50;;;;;;5072223;28;20413;-51
2023/08/11 01:55:21;;;;;;;7.82;6.80;;;20.80;46.50;;;;;;5072012;28;20430;-52
2023/08/11 01:57:47;;;;;;;7.97;7.27;;;20.80;46.10;;;;;;5071676;28;20719;-53
2023/08/11 02:00:13;;;;;;;7.40;6.70;;;20.70;46.30;;;;;;5071618;28;20406;-52
2023/08/11 02:02:40;;;;;;;8.13;7.37;;;20.70;46.40;;;;;;5072323;28;20204;-53
2023/08/11 02:05:16;;;;;;;10.30;6.65;;;20.60;46.30;;;;;;5072000;28;20464;-53
2023/08/11 02:07:43;;;;;;;8.05;7.25;;;20.50;46.50;;;;;;5070832;28;20168;-53
2023/08/11 02:10:09;;;;;;;8.82;6.85;;;20.60;46.50;;;;;;5070448;28;20172;-52
2023/08/11 02:12:40;;;;;;;9.25;6.78;;;20.50;46.80;;;;;;5071928;28;20179;-54
2023/08/11 02:15:06;;;;;;;8.33;7.00;;;20.50;46.80;;;;;;5070676;28;20180;-54
2023/08/11 02:17:33;;;;;;;8.75;7.95;;;20.50;47.10;;;;;;5072015;28;20454;-52
2023/08/11 02:20:00;;;;;;;7.63;6.93;;;20.50;47.10;;;;;;5071705;28;20168;-53
2023/08/11 02:22:26;;;;;;;10.63;8.23;;;20.50;47.30;;;;;;5071815;28;20188;-53
2023/08/11 02:24:52;;;;;;;9.25;8.45;;;20.50;47.60;;;;;;5071898;28;20176;-52
2023/08/11 02:27:18;;;;;;;8.63;7.67;;;20.50;47.70;;;;;;5071865;28;20493;-54
2023/08/11 02:29:44;;;;;;;9.40;8.60;;;20.50;47.70;;;;;;5071667;28;20176;-52
2023/08/11 02:32:11;;;;;;;9.48;8.68;;;20.50;48.00;;;;;;5071837;28;20550;-52
2023/08/11 02:34:37;;;;;;;12.38;8.73;;;20.50;48.00;;;;;;5071691;28;20666;-54
2023/08/11 02:37:03;;;;;;;12.40;9.50;;;20.50;48.10;;;;;;5071794;28;20204;-51
2023/08/11 02:39:29;;;;;;;13.38;9.85;;;20.60;48.20;;;;;;5071338;28;20510;-52
2023/08/11 02:41:55;;;;;;;9.60;8.60;;;20.60;48.20;;;;;;5071587;28;20272;-54
2023/08/11 02:44:22;;;;;;;10.10;9.20;;;20.60;48.20;;;;;;5071616;28;20188;-51
2023/08/11 02:46:48;;;;;;;12.52;10.13;;;20.70;48.20;;;;;;5071638;28;20417;-54
2023/08/11 02:49:14;;;;;;;11.95;9.05;;;20.70;48.20;;;;;;5071411;28;20529;-54
2023/08/11 02:51:40;;;;;;;9.00;8.10;;;20.70;48.00;;;;;;5071604;28;20246;-52
2023/08/11 02:54:05;;;;;;;9.50;8.70;;;20.70;47.80;;;;;;5071351;28;20509;-53
2023/08/11 02:56:31;;;;;;;8.90;8.10;;;20.70;47.70;;;;;;5071508;28;20455;-52
2023/08/11 02:58:58;;;;;;;8.97;7.73;;;20.70;47.60;;;;;;5071705;28;20165;-52
2023/08/11 03:01:25;;;;;;;10.93;8.30;;;20.60;47.40;;;;;;5071178;28;20552;-51
2023/08/11 03:03:52;;;;;;;8.55;7.85;;;20.50;47.30;;;;;;5071583;28;20406;-51
2023/08/11 03:06:18;;;;;;;8.15;7.47;;;20.50;47.40;;;;;;5071453;28;20191;-55
2023/08/11 03:08:44;;;;;;;8.20;7.03;;;20.50;47.40;;;;;;5071320;28;20180;-52
2023/08/11 03:11:10;;;;;;;9.47;8.57;;;20.50;47.40;;;;;;5074284;28;20196;-54
2023/08/11 03:13:36;;;;;;;7.93;7.17;;;20.40;47.20;;;;;;5075256;28;20415;-50
2023/08/11 03:16:02;;;;;;;8.48;7.75;;;20.40;47.10;;;;;;5075003;28;20253;-49
2023/08/11 03:18:28;;;;;;;8.48;7.10;;;20.30;47.10;;;;;;5075032;28;20165;-54
2023/08/11 03:20:54;;;;;;;8.95;8.05;;;20.20;47.10;;;;;;5074733;28;20192;-54
2023/08/11 03:23:20;;;;;;;7.57;6.87;;;20.20;47.10;;;;;;5074764;28;20675;-52
2023/08/11 03:25:46;;;;;;;9.02;8.25;;;20.20;47.20;;;;;;5074840;28;20176;-50
2023/08/11 03:28:12;;;;;;;8.60;7.30;;;20.20;47.10;;;;;;5074812;28;20187;-54
2023/08/11 03:30:38;;;;;;;9.70;7.33;;;20.20;47.20;;;;;;5074611;28;20441;-51
2023/08/11 03:33:04;;;;;;;8.13;7.43;;;20.10;47.10;;;;;;5074840;28;20441;-52
2023/08/11 03:35:32;;;;;;;9.77;7.07;;;20.10;46.90;;;;;;5074677;28;20759;-56
2023/08/11 03:37:58;;;;;;;8.52;7.35;;;20.10;47.00;;;;;;5074559;28;20843;-52
2023/08/11 03:40:25;;;;;;;8.10;7.30;;;20.00;47.00;;;;;;5074562;28;20262;-52
2023/08/11 03:42:52;;;;;;;6.55;5.95;;;20.00;47.00;;;;;;5074543;28;20399;-55
2023/08/11 03:45:18;;;;;;;7.82;6.05;;;20.00;47.10;;;;;;5074634;28;20240;-54
2023/08/11 03:47:44;;;;;;;8.30;6.43;;;19.90;47.20;;;;;;5074532;28;20200;-51
2023/08/11 03:50:10;;;;;;;7.07;6.37;;;19.90;47.30;;;;;;5074390;28;20926;-55
2023/08/11 03:52:37;;;;;;;7.78;7.00;;;19.90;47.20;;;;;;5074393;28;20196;-53
2023/08/11 03:55:03;;;;;;;8.80;6.30;;;19.90;47.30;;;;;;5074462;28;20188;-57
2023/08/11 03:57:29;;;;;;;8.35;7.45;;;19.80;47.10;;;;;;5074524;28;20688;-53
2023/08/11 03:59:56;;;;;;;8.57;7.67;;;19.80;47.10;;;;;;5074294;28;20204;-52
2023/08/11 04:02:21;;;;;;;6.43;5.82;;;19.90;47.20;;;;;;5074137;28;20439;-55
2023/08/11 04:04:47;;;;;;;10.23;6.53;;;19.80;47.10;;;;;;5074178;28;20176;-52
2023/08/11 04:07:13;;;;;;;7.87;6.67;;;19.80;47.10;;;;;;5074224;28;20180;-52
2023/08/11 04:09:43;;;;;;;8.80;6.50;;;19.80;47.00;;;;;;5073895;28;20168;-55
2023/08/11 04:12:10;;;;;;;6.80;6.07;;;19.80;47.10;;;;;;5073983;28;20534;-52
2023/08/11 04:14:39;;;;;;;10.43;7.22;;;19.80;47.80;;;;;;5074136;28;20181;-55
2023/08/11 04:17:05;;;;;;;7.40;6.70;;;19.80;47.20;;;;;;5073927;28;20204;-51
2023/08/11 04:19:32;;;;;;;9.43;6.40;;;19.80;47.40;;;;;;5073659;28;20192;-53
2023/08/11 04:21:58;;;;;;;13.73;7.15;;;19.80;47.50;;;;;;5073315;28;20183;-50
2023/08/11 04:24:23;;;;;;;8.70;6.60;;;19.80;47.70;;;;;;5073813;28;20169;-56
2023/08/11 04:26:51;;;;;;;6.87;6.23;;;19.80;47.80;;;;;;5073841;28;20406;-54
2023/08/11 04:29:17;;;;;;;9.43;7.32;;;19.80;47.90;;;;;;5073591;28;20402;-51
2023/08/11 04:31:42;;;;;;;7.88;6.70;;;19.80;48.00;;;;;;5073710;28;20203;-56
2023/08/11 04:34:10;;;;;;;8.20;7.40;;;19.80;48.10;;;;;;5073628;28;20172;-55
2023/08/11 04:36:37;;;;;;;8.65;7.85;;;19.80;48.40;;;;;;5073866;28;20623;-50
2023/08/11 04:39:03;;;;;;;8.45;7.65;;;19.80;48.80;;;;;;5073793;28;20180;-51
2023/08/11 04:41:29;;;;;;;7.68;6.90;;;19.90;49.00;;;;;;5073318;28;20230;-57
2023/08/11 04:43:55;;;;;;;11.93;6.97;;;19.90;49.30;;;;;;5073379;28;20176;-55
2023/08/11 04:46:21;;;;;;;8.57;7.77;;;19.90;49.40;;;;;;5073426;28;20460;-52
2023/08/11 04:48:46;;;;;;;7.93;7.13;;;20.00;49.50;;;;;;5073372;28;20179;-51
2023/08/11 04:51:12;;;;;;;7.90;7.20;;;20.00;49.50;;;;;;5073364;28;20579;-54
2023/08/11 04:53:38;;;;;;;7.30;6.50;;;20.10;49.50;;;;;;5073109;28;20648;-55
2023/08/11 04:56:04;;;;;;;7.70;6.90;;;20.20;49.60;;;;;;5073071;28;20199;-51
2023/08/11 04:58:30;;;;;;;7.97;6.93;;;20.20;49.60;;;;;;5073228;28;20165;-57
2023/08/11 05:00:56;;;;;;;6.90;6.30;;;20.20;49.50;;;;;;5073170;28;20188;-56
2023/08/11 05:03:22;;;;;;;13.30;7.77;;;20.30;49.70;;;;;;5073195;28;20259;-51
2023/08/11 05:05:48;;;;;;;7.57;6.78;;;20.30;49.60;;;;;;5071784;28;20177;-56
2023/08/11 05:08:14;;;;;;;7.83;6.73;;;20.40;49.40;;;;;;5072902;28;20184;-52
2023/08/11 05:10:40;;;;;;;7.50;6.80;;;20.40;49.30;;;;;;5072625;28;20942;-52
2023/08/11 05:13:06;;;;;;;6.97;6.37;;;20.50;49.30;;;;;;5072935;28;20203;-56
2023/08/11 05:15:32;;;;;;;7.80;6.67;;;20.50;49.30;;;;;;5073046;28;20216;-57
2023/08/11 05:17:57;;;;;;;9.50;6.70;;;20.50;49.30;;;;;;5072714;28;20180;-50
2023/08/11 05:20:23;;;;;;;9.90;7.80;;;20.60;49.20;;;;;;5072584;28;20168;-51
2023/08/11 05:22:52;;;;;;;12.73;7.40;;;20.60;49.30;;;;;;5072634;28;20259;-54
2023/08/11 05:25:17;;;;;;;8.35;7.55;;;20.70;49.30;;;;;;5072915;28;20221;-52
2023/08/11 05:27:44;;;;;;;7.03;6.33;;;20.70;49.00;;;;;;5072675;28;20184;-53
2023/08/11 05:30:10;;;;;;;7.20;6.50;;;20.80;49.70;;;;;;5072281;28;20910;-55
2023/08/11 05:32:36;;;;;;;7.50;6.75;;;20.80;48.60;;;;;;5072117;28;20181;-49
2023/08/11 05:35:02;;;;;;;8.63;7.70;;;20.80;48.50;;;;;;5072303;28;20199;-52
2023/08/11 05:37:28;;;;;;;8.00;7.20;;;20.80;48.60;;;;;;5071391;28;20205;-52
2023/08/11 05:39:54;;;;;;;8.30;7.50;;;20.90;48.80;;;;;;5072192;28;20172;-51
2023/08/11 05:42:21;;;;;;;11.40;8.00;;;20.90;48.50;;;;;;5072290;28;20437;-53
2023/08/11 05:44:46;;;;;;;7.55;6.85;;;20.90;48.50;;;;;;5072630;28;20494;-52
2023/08/11 05:47:12;;;;;;;13.83;8.03;;;21.00;48.50;;;;;;5072479;28;20196;-50
2023/08/11 05:49:39;;;;;;;8.10;7.30;;;21.00;48.30;;;;;;5072129;28;20490;-54
2023/08/11 05:52:05;;;;;;;9.20;7.87;;;21.10;48.30;;;;;;5072055;28;20431;-53
2023/08/11 05:54:31;;;;;;;10.73;8.30;;;21.10;48.20;;;;;;5072185;28;20427;-51
2023/08/11 05:56:57;;;;;;;10.87;7.33;;;21.20;48.00;;;;;;5072024;28;20755;-55
2023/08/11 05:59:23;;;;;;;7.53;6.88;;;21.20;47.80;;;;;;5072105;28;20898;-51
2023/08/11 06:01:50;;;;;;;7.70;6.90;;;21.20;47.90;;;;;;5071217;28;20216;-53
2023/08/11 06:04:16;;;;;;;8.30;7.50;;;21.30;48.10;;;;;;5072297;28;20430;-52
2023/08/11 06:06:43;;;;;;;9.15;6.50;;;21.40;47.90;;;;;;5072178;28;20176;-50
2023/08/11 06:09:09;;;;;;;9.32;8.15;;;21.40;47.90;;;;;;5071964;28;20176;-50
2023/08/11 06:11:36;;;;;;;7.88;6.57;;;21.40;48.10;;;;;;5071950;28;20203;-52
2023/08/11 06:14:02;;;;;;;8.00;7.20;;;21.50;48.10;;;;;;5071864;28;20187;-50
2023/08/11 06:16:28;;;;;;;7.88;6.90;;;21.50;47.80;;;;;;5072220;28;20920;-57
2023/08/11 06:18:55;;;;;;;9.63;7.70;;;21.60;47.60;;;;;;5072055;28;20173;-55
2023/08/11 06:21:21;;;;;;;8.55;7.75;;;21.60;47.50;;;;;;5071544;28;20576;-50
2023/08/11 06:23:47;;;;;;;8.37;6.90;;;21.70;47.50;;;;;;5071953;28;20261;-55
2023/08/11 06:26:13;;;;;;;9.03;7.57;;;21.70;47.30;;;;;;5071896;28;20403;-53
2023/08/11 06:28:39;;;;;;;9.33;7.30;;;21.80;47.30;;;;;;5071719;28;20172;-52
2023/08/11 06:31:05;;;;;;;8.15;7.45;;;21.80;47.70;;;;;;5071860;28;20422;-53
2023/08/11 06:33:31;;;;;;;7.43;6.50;;;21.90;47.00;;;;;;5071834;28;20628;-54
2023/08/11 06:35:57;;;;;;;6.17;5.57;;;21.90;47.50;;;;;;5071914;28;20446;-52
2023/08/11 06:38:23;;;;;;;8.07;7.03;;;22.00;46.50;;;;;;5071778;28;20165;-53
2023/08/11 06:40:50;;;;;;;8.77;7.60;;;22.10;46.50;;;;;;5071766;28;20433;-56
2023/08/11 06:43:16;;;;;;;14.30;7.87;;;22.10;46.50;;;;;;5071613;28;20763;-55
2023/08/11 06:45:44;;;;;;;8.10;7.40;;;22.20;46.30;;;;;;5073067;28;20926;-51
2023/08/11 06:48:11;;;;;;;8.07;7.27;;;22.20;46.10;;;;;;5075787;28;20775;-53
2023/08/11 06:50:36;;;;;;;7.73;7.00;;;22.30;46.40;;;;;;5075422;28;20426;-55
2023/08/11 06:53:03;;;;;;;7.57;6.87;;;22.30;46.10;;;;;;5075509;28;20750;-52
2023/08/11 06:55:28;;;;;;;7.20;6.50;;;22.40;45.80;;;;;;5075369;28;20423;-52
2023/08/11 06:57:54;;;;;;;12.63;7.40;;;22.40;45.90;;;;;;5075627;28;20503;-57
2023/08/11 07:00:20;;;;;;;6.80;6.10;;;22.40;45.70;;;;;;5075052;28;20763;-51
2023/08/11 07:02:46;;;;;;;10.23;6.37;;;22.50;45.30;;;;;;5075582;28;20414;-51
2023/08/11 07:05:12;;;;;;;6.80;6.20;;;22.50;44.80;;;;;;5075288;28;20402;-55
2023/08/11 07:07:38;;;;;;;8.93;6.00;;;22.60;44.50;;;;;;5075273;28;20483;-52
2023/08/11 07:10:04;;;;;;;7.17;6.57;;;22.60;44.50;;;;;;5075013;28;20402;-51
2023/08/11 07:12:30;;;;;;;6.50;5.90;;;22.70;44.50;;;;;;5075028;28;20541;-54
2023/08/11 07:14:56;;;;;;;6.97;6.27;;;22.70;44.00;;;;;;5075167;28;20406;-53
2023/08/11 07:17:23;;;;;;;6.17;5.57;;;22.80;43.30;;;;;;5075063;28;20203;-53
2023/08/11 07:19:49;;;;;;;12.77;6.80;;;22.80;43.20;;;;;;5074938;28;20177;-51
2023/08/11 07:22:14;;;;;;;9.17;6.70;;;22.80;42.70;;;;;;5074966;28;20513;-50
2023/08/11 07:24:40;;;;;;;7.03;5.40;;;22.90;43.20;;;;;;5074942;28;21021;-55
2023/08/11 07:27:06;;;;;;;8.37;6.30;;;22.90;43.70;;;;;;5074983;28;20169;-50
2023/08/11 07:29:32;;;;;;;8.83;6.47;;;23.10;43.80;;;;;;5074740;28;20803;-53
2023/08/11 07:31:58;;;;;;;8.70;6.20;;;23.10;42.20;;;;;;5074643;28;20515;-58
2023/08/11 07:34:23;;;;;;;6.57;5.20;;;23.20;41.80;;;;;;5074941;28;20169;-51
2023/08/11 07:36:49;;;;;;;9.60;6.53;;;23.20;41.10;;;;;;5074774;28;20720;-53
2023/08/11 07:39:16;;;;;;;6.70;5.70;;;23.20;42.60;;;;;;5074517;28;20403;-51
2023/08/11 07:41:41;;;;;;;6.63;5.57;;;23.30;42.80;;;;;;5074524;28;20598;-51
2023/08/11 07:44:07;;;;;;;10.53;6.00;;;23.40;42.30;;;;;;5074591;28;20403;-55
2023/08/11 07:46:33;;;;;;;7.83;5.63;;;23.50;43.10;;;;;;5074630;28;20418;-51
2023/08/11 07:48:59;;;;;;;6.93;5.33;;;23.60;43.50;;;;;;5074566;28;20198;-57
2023/08/11 07:51:25;;;;;;;6.10;5.50;;;23.80;41.80;;;;;;5074395;28;20200;-56
2023/08/11 07:53:51;;;;;;;7.03;5.77;;;23.80;41.60;;;;;;5073163;28;20722;-51
2023/08/11 07:56:17;;;;;;;9.20;5.37;;;23.80;41.60;;;;;;5073218;28;20607;-55
2023/08/11 07:58:43;;;;;;;6.10;4.90;;;23.90;42.10;;;;;;5074420;28;20451;-55
2023/08/11 08:01:10;;;;;;;6.70;5.20;;;24.10;42.00;;;;;;5073989;28;20514;-52
2023/08/11 08:03:36;;;;;;;7.50;5.20;;;24.20;42.10;;;;;;5072943;28;20983;-52
2023/08/11 08:06:05;;;;;;;8.20;5.63;;;24.30;41.10;;;;;;5074170;28;20414;-51
2023/08/11 08:08:34;;;;;;;7.23;4.80;;;24.40;40.10;;;;;;5074131;28;20407;-51
2023/08/11 08:11:01;;;;;;;5.40;4.40;;;24.50;40.60;;;;;;5073818;28;20450;-55
2023/08/11 08:13:28;;;;;;;10.10;5.20;;;24.60;40.30;;;;;;5074075;28;20403;-52
2023/08/11 08:15:55;;;;;;;4.60;3.83;;;24.70;39.70;;;;;;5073965;28;20450;-52
2023/08/11 08:18:21;;;;;;;8.33;4.53;;;24.80;38.50;;;;;;5074265;28;20413;-55
2023/08/11 08:20:47;;;;;;;4.97;3.50;;;24.90;38.00;;;;;;5073705;28;20422;-52
2023/08/11 08:23:13;;;;;;;5.43;4.60;;;25.00;37.60;;;;;;5073814;28;20632;-54
2023/08/11 08:25:39;;;;;;;11.47;3.47;;;25.10;39.00;;;;;;5073848;28;20499;-55
2023/08/11 08:28:05;;;;;;;4.10;3.13;;;25.20;36.30;;;;;;5073778;28;20499;-52
2023/08/11 08:30:32;;;;;;;5.93;3.40;;;25.20;37.40;;;;;;5073481;28;20513;-57
2023/08/11 08:32:57;;;;;;;5.80;3.13;;;25.30;37.70;;;;;;5073661;28;20827;-53
2023/08/11 08:35:24;;;;;;;4.77;3.57;;;25.40;37.50;;;;;;5073638;28;20438;-56
2023/08/11 08:37:49;;;;;;;6.83;3.40;;;25.50;37.80;;;;;;5073375;28;20232;-52
2023/08/11 08:40:15;;;;;;;3.70;3.20;;;25.70;38.10;;;;;;5073229;28;20437;-54
2023/08/11 08:42:42;;;;;;;4.47;3.17;;;25.70;37.40;;;;;;5073420;28;20637;-56
2023/08/11 08:45:08;;;;;;;4.70;3.27;;;25.90;37.00;;;;;;5073405;28;20926;-53
2023/08/11 08:47:35;;;;;;;4.00;3.00;;;26.00;36.60;;;;;;5073362;28;20434;-57
2023/08/11 08:50:03;;;;;;;8.23;3.97;;;26.10;35.60;;;;;;5073121;28;20407;-50
2023/08/11 08:52:30;;;;;;;6.17;3.50;;;26.20;37.80;;;;;;5072986;28;20461;-53
2023/08/11 08:54:56;;;;;;;4.43;2.87;;;26.30;36.40;;;;;;5073214;28;20823;-52
2023/08/11 08:57:26;;;;;;;4.37;2.43;;;26.40;35.60;;;;;;5073042;28;20549;-51
2023/08/11 08:59:52;;;;;;;10.20;3.10;;;26.50;33.10;;;;;;5072972;28;20779;-55
2023/08/11 09:02:19;;;;;;;7.50;3.43;;;26.50;32.50;;;;;;5073013;28;20423;-50
2023/08/11 09:04:46;;;;;;;5.87;2.67;;;26.50;34.60;;;;;;5072921;28;20406;-52
2023/08/11 09:07:13;;;;;;;4.83;2.37;;;26.60;34.00;;;;;;5073016;28;20422;-54
2023/08/11 09:09:39;;;;;;;5.33;2.70;;;26.60;32.30;;;;;;5071476;28;20411;-51
2023/08/11 09:12:05;;;;;;;5.43;2.47;;;26.60;32.20;;;;;;5072816;28;20438;-50
2023/08/11 09:14:31;;;;;;;4.00;2.67;;;26.70;33.90;;;;;;5072864;28;20414;-54
2023/08/11 09:17:00;;;;;;;5.80;3.40;;;26.70;33.40;;;;;;5072672;28;20446;-51
2023/08/11 09:19:27;;;;;;;4.33;2.13;;;26.80;32.50;;;;;;5072478;28;20172;-54
2023/08/11 09:21:54;;;;;;;3.37;2.57;;;26.90;33.70;;;;;;5072625;28;20454;-50
2023/08/11 09:24:22;;;;;;;4.80;2.50;;;26.90;33.50;;;;;;5072630;28;20480;-50
2023/08/11 09:26:51;;;;;;;4.70;2.47;;;27.00;34.50;;;;;;5072647;28;20940;-55
2023/08/11 09:29:18;;;;;;;4.33;3.07;;;27.00;33.60;;;;;;5072366;28;20508;-49
2023/08/11 09:31:49;;;;;;;5.30;3.53;;;27.10;34.20;;;;;;5072527;28;20445;-53
2023/08/11 09:34:17;;;;;;;3.10;2.40;;;27.20;34.30;;;;;;5072352;28;20411;-54
2023/08/11 09:36:44;;;;;;;6.53;2.80;;;27.20;32.60;;;;;;5072419;28;20442;-51
2023/08/11 09:39:10;;;;;;;5.00;2.60;;;27.30;33.10;;;;;;5072350;28;20434;-53
2023/08/11 09:41:45;;;;;;;4.43;3.10;;;27.40;33.00;;;;;;5072634;28;20475;-50
2023/08/11 09:44:16;;;;;;;5.07;2.40;;;27.50;32.80;;;;;;5072432;28;20740;-53
2023/08/11 09:46:42;;;;;;;4.67;2.83;;;27.60;30.50;;;;;;5072199;28;20411;-51
2023/08/11 09:49:09;;;;;;;3.93;2.80;;;27.60;31.70;;;;;;5072148;28;20498;-49
2023/08/11 09:51:36;;;;;;;5.10;2.47;;;27.60;29.80;;;;;;5072156;28;21019;-53
2023/08/11 09:54:06;;;;;;;14.63;2.60;;;27.50;29.60;;;;;;5072165;28;20422;-54
2023/08/11 09:56:43;;;;;;;3.60;2.50;;;27.60;30.20;;;;;;5072144;28;20503;-48
2023/08/11 09:59:17;;;;;;;5.03;3.20;;;27.70;31.40;;;;;;5071936;28;20770;-53
2023/08/11 10:01:44;;;;;;;4.37;2.73;;;27.80;30.90;;;;;;5072013;28;20423;-51
2023/08/11 10:04:31;;;;;;;4.57;2.30;;;27.90;30.90;;;;;;5072106;28;20403;-55
2023/08/11 10:06:59;;;;;;;5.17;2.90;;;27.90;32.60;;;;;;5072059;28;20425;-53
2023/08/11 10:09:27;;;;;;;3.63;2.70;;;28.10;32.00;;;;;;5072141;28;20773;-51
2023/08/11 10:11:56;;;;;;;7.90;3.27;;;28.10;32.10;;;;;;5071953;28;20426;-51
2023/08/11 10:14:25;;;;;;;7.73;2.87;;;28.20;30.70;;;;;;5072134;28;20431;-53
2023/08/11 10:16:52;;;;;;;5.13;2.73;;;28.20;30.40;;;;;;5070633;28;21023;-50
2023/08/11 10:19:19;;;;;;;3.27;2.60;;;28.20;31.90;;;;;;5071164;28;20403;-54
2023/08/11 10:21:45;;;;;;;3.87;2.50;;;28.20;31.40;;;;;;5071934;28;20454;-51
2023/08/11 10:24:12;;;;;;;2.97;2.43;;;28.30;29.90;;;;;;5071944;28;20403;-49
2023/08/11 10:26:39;;;;;;;3.03;2.30;;;28.30;31.10;;;;;;5071888;28;20494;-52
2023/08/11 10:29:06;;;;;;;4.43;2.73;;;28.30;30.10;;;;;;5071731;28;20407;-52
2023/08/11 10:31:33;;;;;;;5.27;2.83;;;28.50;31.20;;;;;;5071761;28;20423;-50
2023/08/11 10:34:05;;;;;;;2.97;2.67;;;28.60;31.50;;;;;;5071791;28;20407;-54
2023/08/11 10:36:33;;;;;;;6.70;3.27;;;28.70;29.30;;;;;;5071741;28;20808;-50
2023/08/11 10:39:06;;;;;;;7.90;2.90;;;28.80;31.30;;;;;;5071730;28;20399;-50
2023/08/11 10:41:33;;;;;;;6.80;2.60;;;28.90;31.80;;;;;;5071598;28;20431;-54
2023/08/11 10:43:59;;;;;;;3.17;2.60;;;29.10;31.90;;;;;;5071662;28;20418;-49
2023/08/11 10:46:31;;;;;;;3.23;2.53;;;29.10;29.20;;;;;;5071704;28;20907;-50
2023/08/11 10:49:07;;;;;;;3.00;2.40;;;29.10;30.70;;;;;;5071570;28;20407;-53
2023/08/11 10:51:40;;;;;;;2.33;2.00;;;29.20;31.40;;;;;;5071783;28;20426;-51
2023/08/11 10:54:06;;;;;;;6.03;3.17;;;29.20;30.90;;;;;;5071659;28;20576;-53
2023/08/11 10:56:40;;;;;;;4.20;2.47;;;29.20;31.50;;;;;;5071572;28;20616;-49
2023/08/11 10:59:08;;;;;;;5.43;2.40;;;29.40;31.20;;;;;;5071554;28;20168;-52
2023/08/11 11:01:39;;;;;;;4.07;2.63;;;29.50;30.00;;;;;;5071248;28;20426;-53
2023/08/11 11:04:08;;;;;;;2.97;2.27;;;29.60;29.10;;;;;;5071549;28;20407;-51
2023/08/11 11:06:35;;;;;;;6.93;2.40;;;29.70;30.00;;;;;;5071487;28;20421;-52
2023/08/11 11:09:03;;;;;;;6.70;2.17;;;29.70;29.00;;;;;;5071453;28;20442;-48
2023/08/11 11:11:30;;;;;;;3.43;2.27;;;29.70;28.70;;;;;;5071227;28;20430;-51
2023/08/11 11:13:57;;;;;;;4.73;2.63;;;29.70;28.00;;;;;;5071395;28;20498;-54
2023/08/11 11:16:23;;;;;;;4.43;2.30;;;29.70;29.20;;;;;;5071315;28;20465;-51
2023/08/11 11:18:50;;;;;;;4.63;2.50;;;29.70;28.70;;;;;;5071422;28;20406;-51
2023/08/11 11:21:17;;;;;;;4.83;2.70;;;29.90;28.70;;;;;;5071432;28;20420;-53
2023/08/11 11:23:48;;;;;;;4.10;2.70;;;30.00;31.30;;;;;;5071295;28;20407;-52
2023/08/11 11:26:20;;;;;;;3.43;1.90;;;30.20;30.30;;;;;;5071481;28;20759;-50
2023/08/11 11:28:46;;;;;;;5.23;2.10;;;30.30;28.80;;;;;;5071227;28;20409;-52
2023/08/11 11:31:12;;;;;;;4.63;2.23;;;30.20;29.10;;;;;;5071093;28;20510;-53
2023/08/11 11:33:39;;;;;;;5.47;1.93;;;30.20;29.60;;;;;;5074856;28;20191;-51
2023/08/11 11:36:05;;;;;;;5.07;2.80;;;30.20;30.10;;;;;;5074687;28;20450;-52
2023/08/11 11:38:31;;;;;;;5.63;2.13;;;30.20;31.00;;;;;;5074804;28;20906;-53
2023/08/11 11:40:57;;;;;;;3.53;2.20;;;30.30;29.40;;;;;;5074408;28;20435;-51
2023/08/11 11:43:23;;;;;;;3.00;2.03;;;30.30;29.50;;;;;;5074585;28;20399;-55
2023/08/11 11:45:52;;;;;;;3.90;2.37;;;30.30;29.60;;;;;;5074699;28;20211;-50
2023/08/11 11:48:20;;;;;;;4.33;2.23;;;30.20;29.60;;;;;;5074565;28;20544;-53
2023/08/11 11:50:46;;;;;;;4.63;1.90;;;30.30;27.10;;;;;;5074233;28;20426;-53
2023/08/11 11:53:12;;;;;;;3.03;2.20;;;30.30;28.70;;;;;;5074371;28;20424;-50
2023/08/11 11:55:47;;;;;;;7.10;2.93;;;30.40;30.30;;;;;;5074706;28;20740;-54
2023/08/11 11:58:15;;;;;;;4.47;2.00;;;30.50;30.60;;;;;;5074653;28;20902;-51
2023/08/11 12:00:42;;;;;;;3.37;1.90;;;30.60;30.40;;;;;;5074271;28;20427;-55
2023/08/11 12:03:09;;;;;;;5.73;2.50;;;30.80;29.50;;;;;;5074332;28;20391;-52
2023/08/11 12:05:35;;;;;;;3.73;2.40;;;30.90;30.00;;;;;;5074297;28;20488;-51
2023/08/11 12:08:19;;;;;;;2.60;2.40;;;31.00;29.80;;;;;;5074209;28;20407;-51
2023/08/11 12:10:46;;;;;;;4.47;2.30;;;31.00;29.90;;;;;;5073935;28;20912;-51
2023/08/11 12:13:12;;;;;;;5.10;2.07;;;31.10;28.50;;;;;;5074356;28;20490;-52
2023/08/11 12:15:39;;;;;;;8.03;2.27;;;31.20;28.80;;;;;;5074110;28;20493;-51
2023/08/11 12:18:06;;;;;;;4.40;2.23;;;31.10;29.80;;;;;;5074282;28;20462;-51
2023/08/11 12:20:34;;;;;;;4.43;2.33;;;31.00;28.70;;;;;;5073691;28;20423;-55
2023/08/11 12:23:00;;;;;;;3.83;1.90;;;31.00;29.20;;;;;;5073827;28;20497;-51
2023/08/11 12:25:26;;;;;;;4.27;2.13;;;31.00;29.00;;;;;;5073823;28;20492;-55
2023/08/11 12:27:55;;;;;;;3.30;2.30;;;31.10;27.80;;;;;;5073853;28;20183;-54
2023/08/11 12:30:21;;;;;;;5.87;2.30;;;31.20;29.80;;;;;;5073499;28;20421;-51
2023/08/11 12:32:47;;;;;;;4.87;2.20;;;31.30;28.40;;;;;;5073763;28;20399;-51
2023/08/11 12:35:13;;;;;;;4.70;2.17;;;31.40;26.10;;;;;;5073622;28;20178;-54
2023/08/11 12:37:39;;;;;;;4.10;2.60;;;31.40;27.40;;;;;;5073810;28;20454;-51
2023/08/11 12:40:09;;;;;;;4.47;2.60;;;31.60;27.20;;;;;;5073338;28;20410;-49
2023/08/11 12:42:36;;;;;;;6.43;2.17;;;31.70;27.90;;;;;;5073020;28;20403;-54
2023/08/11 12:45:07;;;;;;;4.20;2.20;;;31.80;27.00;;;;;;5073848;28;20407;-50